createdAt,value
2018-07-25T00:00:33.282Z,57.30
2018-07-25T00:03:00.649Z,58.20
2018-07-25T00:05:28.146Z,58.60
2018-07-25T00:07:55.598Z,57.90
2018-07-25T00:10:27.581Z,58.30
2018-07-25T00:12:55.072Z,57.80
2018-07-25T00:15:22.501Z,57.70
2018-07-25T00:17:49.928Z,58.00
2018-07-25T00:20:17.409Z,59.00
2018-07-25T00:22:44.871Z,58.20
2018-07-25T00:25:12.369Z,58.00
2018-07-25T00:27:39.892Z,57.90
2018-07-25T00:30:07.419Z,57.70
2018-07-25T00:32:34.879Z,57.70
2018-07-25T00:35:02.373Z,58.10
2018-07-25T00:37:29.931Z,59.70
2018-07-25T00:39:57.427Z,59.40
2018-07-25T00:42:24.877Z,59.50
2018-07-25T00:44:52.369Z,60.00
2018-07-25T00:47:19.897Z,59.80
2018-07-25T00:49:47.310Z,59.70
2018-07-25T00:52:14.720Z,59.90
2018-07-25T00:54:42.162Z,59.50
2018-07-25T00:57:09.535Z,59.00
2018-07-25T00:59:37.062Z,59.30
2018-07-25T01:02:04.501Z,59.70
2018-07-25T01:04:31.946Z,59.90
2018-07-25T01:06:59.411Z,60.30
2018-07-25T01:09:26.902Z,60.70
2018-07-25T01:11:54.336Z,60.90
2018-07-25T01:14:21.832Z,61.00
2018-07-25T01:16:49.334Z,61.10
2018-07-25T01:19:16.765Z,61.40
2018-07-25T01:21:44.343Z,61.60
2018-07-25T01:24:11.777Z,62.20
2018-07-25T01:26:39.150Z,61.40
2018-07-25T01:29:06.628Z,61.00
2018-07-25T01:31:34.164Z,60.90
2018-07-25T01:34:01.618Z,60.90
2018-07-25T01:38:56.504Z,61.50
2018-07-25T01:41:23.896Z,61.10
2018-07-25T01:43:51.323Z,61.70
2018-07-25T01:46:18.782Z,62.00
2018-07-25T01:48:46.280Z,62.10
2018-07-25T01:51:13.751Z,62.60
2018-07-25T01:53:41.260Z,62.30
2018-07-25T01:56:08.843Z,63.40
2018-07-25T01:58:36.213Z,63.30
2018-07-25T02:01:03.677Z,63.10
2018-07-25T02:03:31.179Z,63.50
2018-07-25T02:05:58.630Z,62.70
2018-07-25T02:08:26.109Z,62.90
2018-07-25T02:10:53.604Z,63.50
2018-07-25T02:13:21.033Z,63.80
2018-07-25T02:15:48.527Z,63.30
2018-07-25T02:18:16.076Z,63.90
2018-07-25T02:20:43.521Z,63.20
2018-07-25T02:23:11.007Z,63.00
2018-07-25T02:25:38.487Z,63.30
2018-07-25T02:28:06.033Z,63.20
2018-07-25T02:30:33.527Z,63.50
2018-07-25T02:33:00.971Z,63.80
2018-07-25T02:35:28.403Z,63.50
2018-07-25T02:37:55.908Z,63.50
2018-07-25T02:40:23.876Z,62.90
2018-07-25T02:42:51.450Z,62.70
2018-07-25T02:45:18.982Z,63.20
2018-07-25T02:47:46.555Z,63.00
2018-07-25T02:50:14.071Z,63.20
2018-07-25T02:52:41.540Z,63.30
2018-07-25T02:55:08.979Z,64.40
2018-07-25T02:57:36.398Z,65.70
2018-07-25T03:00:04.948Z,66.30
2018-07-25T03:02:32.386Z,66.90
2018-07-25T03:04:59.856Z,67.00
2018-07-25T03:07:27.273Z,67.20
2018-07-25T03:09:54.789Z,67.10
2018-07-25T03:12:22.232Z,66.60
2018-07-25T03:14:49.754Z,66.60
2018-07-25T03:17:17.175Z,66.90
2018-07-25T03:19:44.633Z,67.20
2018-07-25T03:22:12.076Z,67.00
2018-07-25T03:24:39.594Z,67.40
2018-07-25T03:27:07.249Z,67.70
2018-07-25T03:29:34.791Z,67.80
2018-07-25T03:32:02.277Z,67.70
2018-07-25T03:34:29.726Z,68.00
2018-07-25T03:36:57.258Z,69.00
2018-07-25T03:39:24.664Z,68.60
2018-07-25T03:41:52.065Z,68.40
2018-07-25T03:44:19.596Z,69.10
2018-07-25T03:46:47.064Z,69.30
2018-07-25T03:49:14.547Z,69.00
2018-07-25T03:51:42.123Z,69.00
2018-07-25T03:54:09.602Z,69.00
2018-07-25T03:56:37.035Z,69.10
2018-07-25T03:59:04.438Z,69.00
2018-07-25T04:01:31.853Z,68.40
2018-07-25T04:03:59.418Z,67.80
2018-07-25T04:06:26.876Z,67.60
2018-07-25T04:08:54.342Z,67.60
2018-07-25T04:11:21.793Z,67.60
2018-07-25T04:13:49.234Z,67.90
2018-07-25T04:16:16.792Z,67.80
2018-07-25T04:18:44.300Z,67.30
2018-07-25T04:21:11.787Z,66.30
2018-07-25T04:23:39.158Z,66.80
2018-07-25T04:26:06.625Z,66.70
2018-07-25T04:28:34.114Z,66.70
2018-07-25T04:31:01.660Z,66.50
2018-07-25T04:33:29.082Z,66.90
2018-07-25T04:35:56.762Z,66.60
2018-07-25T04:38:24.264Z,66.90
2018-07-25T04:40:52.595Z,66.60
2018-07-25T04:43:20.028Z,67.10
2018-07-25T04:45:47.591Z,67.10
2018-07-25T04:48:15.105Z,67.00
2018-07-25T04:50:42.511Z,66.90
2018-07-25T04:53:09.981Z,67.20
2018-07-25T04:55:37.407Z,67.20
2018-07-25T04:58:04.883Z,67.10
2018-07-25T05:00:32.416Z,67.80
2018-07-25T05:02:59.908Z,67.60
2018-07-25T05:05:27.557Z,66.80
2018-07-25T05:07:55.101Z,66.90
2018-07-25T05:10:22.693Z,67.40
2018-07-25T05:12:50.100Z,67.70
2018-07-25T05:15:17.646Z,66.90
2018-07-25T05:17:45.040Z,66.10
2018-07-25T05:22:39.980Z,65.40
2018-07-25T05:25:07.539Z,67.00
2018-07-25T05:27:34.968Z,66.30
2018-07-25T05:30:02.580Z,67.10
2018-07-25T05:32:30.102Z,67.70
2018-07-25T05:34:57.565Z,67.10
2018-07-25T05:37:25.144Z,66.50
2018-07-25T05:39:52.655Z,66.10
2018-07-25T05:42:20.068Z,64.70
2018-07-25T05:44:47.532Z,64.80
2018-07-25T05:47:15.008Z,65.20
2018-07-25T05:49:42.527Z,65.20
2018-07-25T05:52:09.996Z,64.70
2018-07-25T05:54:37.445Z,64.20
2018-07-25T05:57:04.835Z,64.10
2018-07-25T05:59:32.277Z,64.20
2018-07-25T06:01:59.803Z,64.50
2018-07-25T06:04:27.373Z,63.80
2018-07-25T06:06:54.766Z,64.60
2018-07-25T06:09:22.251Z,64.70
2018-07-25T06:11:49.732Z,65.20
2018-07-25T06:14:17.390Z,66.00
2018-07-25T06:16:44.877Z,65.80
2018-07-25T06:19:12.285Z,65.10
2018-07-25T06:21:39.711Z,65.40
2018-07-25T06:24:07.184Z,65.90
2018-07-25T06:26:34.632Z,65.20
2018-07-25T06:29:02.237Z,65.60
2018-07-25T06:31:29.783Z,65.90
2018-07-25T06:33:57.263Z,66.00
2018-07-25T06:36:24.747Z,66.10
2018-07-25T06:38:52.077Z,65.70
2018-07-25T06:41:20.174Z,66.80
2018-07-25T06:43:48.065Z,65.00
2018-07-25T06:46:15.483Z,65.40
2018-07-25T06:48:42.895Z,66.10
2018-07-25T06:51:10.338Z,66.10
2018-07-25T06:53:37.794Z,64.40
2018-07-25T06:56:05.303Z,63.20
2018-07-25T06:58:32.763Z,64.50
2018-07-25T07:01:00.191Z,63.50
2018-07-25T07:03:27.712Z,63.90
2018-07-25T07:05:56.043Z,63.60
2018-07-25T07:08:25.198Z,65.10
2018-07-25T07:10:52.686Z,66.30
2018-07-25T07:13:20.246Z,66.30
2018-07-25T07:15:47.890Z,65.10
2018-07-25T07:18:15.442Z,64.70
2018-07-25T07:20:42.856Z,63.90
2018-07-25T07:23:10.292Z,63.80
2018-07-25T07:25:37.737Z,64.30
2018-07-25T07:28:05.837Z,63.50
2018-07-25T07:30:33.582Z,64.20
2018-07-25T07:33:01.154Z,64.40
2018-07-25T07:35:28.721Z,63.80
2018-07-25T07:37:56.265Z,62.80
2018-07-25T07:40:23.984Z,62.90
2018-07-25T07:42:51.917Z,62.80
2018-07-25T07:45:19.590Z,60.80
2018-07-25T07:47:47.396Z,61.40
2018-07-25T07:50:14.957Z,61.30
2018-07-25T07:52:42.636Z,61.60
2018-07-25T07:55:10.349Z,61.20
2018-07-25T07:57:38.126Z,62.20
2018-07-25T08:00:06.610Z,61.90
2018-07-25T08:02:34.267Z,61.70
2018-07-25T08:05:01.932Z,61.70
2018-07-25T08:07:29.419Z,60.40
2018-07-25T08:09:57.143Z,60.00
2018-07-25T08:12:24.623Z,59.90
2018-07-25T08:14:52.296Z,60.40
2018-07-25T08:17:20.170Z,59.80
2018-07-25T08:19:50.097Z,61.00
2018-07-25T08:22:17.775Z,60.70
2018-07-25T08:24:45.419Z,60.80
2018-07-25T08:27:13.046Z,61.60
2018-07-25T08:29:40.766Z,62.10
2018-07-25T08:32:08.404Z,61.60
2018-07-25T08:34:36.008Z,62.00
2018-07-25T08:37:03.539Z,62.90
2018-07-25T08:39:31.422Z,61.50
2018-07-25T08:41:58.968Z,61.10
2018-07-25T08:44:26.584Z,60.90
2018-07-25T08:46:54.508Z,60.60
2018-07-25T08:49:21.874Z,60.70
2018-07-25T08:51:49.709Z,59.40
2018-07-25T08:54:23.121Z,60.00
2018-07-25T08:56:50.695Z,60.00
2018-07-25T08:59:19.030Z,60.00
2018-07-25T09:01:46.648Z,58.40
2018-07-25T09:04:14.135Z,58.50
2018-07-25T09:06:42.392Z,58.90
2018-07-25T09:09:10.885Z,58.50
2018-07-25T09:11:38.903Z,59.60
2018-07-25T09:14:06.380Z,58.80
2018-07-25T09:16:34.162Z,58.50
2018-07-25T09:19:03.535Z,58.10
2018-07-25T09:21:34.284Z,58.10
2018-07-25T09:24:02.804Z,58.60
2018-07-25T09:26:44.499Z,58.30
2018-07-25T09:29:11.926Z,59.20
2018-07-25T09:31:47.832Z,58.40
2018-07-25T09:34:15.565Z,56.70
2018-07-25T09:36:43.106Z,57.50
2018-07-25T09:39:11.360Z,57.10
2018-07-25T09:44:32.220Z,55.40
2018-07-25T09:47:07.116Z,55.70
2018-07-25T09:55:14.150Z,55.00
2018-07-25T10:00:40.213Z,54.30
2018-07-25T10:03:07.688Z,53.80
2018-07-25T10:05:35.133Z,53.40
2018-07-25T10:08:29.884Z,52.60
2018-07-25T10:10:57.510Z,52.20
2018-07-25T10:13:25.124Z,51.50
2018-07-25T10:16:02.070Z,51.00
2018-07-25T10:18:31.729Z,51.20
2018-07-25T10:20:59.271Z,51.20
2018-07-25T10:23:26.914Z,50.40
2018-07-25T10:25:54.489Z,49.90
2018-07-25T10:28:21.909Z,47.80
2018-07-25T10:30:50.444Z,49.00
2018-07-25T10:33:25.396Z,47.30
2018-07-25T10:36:05.769Z,46.50
2018-07-25T10:38:33.529Z,47.60
2018-07-25T10:41:01.052Z,46.40
2018-07-25T10:43:28.545Z,45.70
2018-07-25T10:45:56.048Z,45.40
2018-07-25T10:48:23.524Z,45.10
2018-07-25T10:50:51.090Z,42.30
2018-07-25T10:53:28.136Z,42.60
2018-07-25T10:55:55.756Z,43.00
2018-07-25T10:58:23.255Z,43.50
2018-07-25T11:00:52.134Z,42.30
2018-07-25T11:03:19.824Z,43.60
2018-07-25T11:05:47.215Z,46.60
2018-07-25T11:08:29.851Z,42.30
2018-07-25T11:10:57.840Z,44.40
2018-07-25T11:13:28.955Z,45.00
2018-07-25T11:16:12.561Z,41.00
2018-07-25T11:18:41.808Z,42.00
2018-07-25T11:21:35.333Z,41.60
2018-07-25T11:24:10.306Z,38.80
2018-07-25T11:27:02.628Z,37.10
2018-07-25T11:32:35.173Z,39.40
2018-07-25T11:35:03.708Z,39.80
2018-07-25T11:37:49.127Z,42.60
2018-07-25T11:40:30.760Z,41.50
2018-07-25T11:42:59.059Z,37.80
2018-07-25T11:45:28.100Z,41.70
2018-07-25T11:48:14.890Z,37.40
2018-07-25T11:51:05.790Z,37.00
2018-07-25T11:56:31.742Z,37.90
2018-07-25T11:59:14.478Z,38.90
2018-07-25T12:01:48.489Z,38.10
2018-07-25T12:10:13.211Z,36.60
2018-07-25T12:30:43.350Z,32.00
2018-07-25T12:33:31.802Z,31.00
2018-07-25T12:36:49.369Z,31.00
2018-07-25T12:39:18.216Z,31.10
2018-07-25T12:41:55.236Z,30.90
2018-07-25T12:44:28.611Z,33.10
2018-07-25T12:47:00.275Z,31.00
2018-07-25T12:49:41.680Z,29.60
2018-07-25T12:52:25.638Z,31.10
2018-07-25T13:00:57.050Z,29.40
2018-07-25T13:03:26.150Z,29.30
2018-07-25T13:05:53.845Z,29.20
2018-07-25T13:11:23.972Z,30.00
2018-07-25T13:16:40.489Z,29.20
2018-07-25T13:19:08.132Z,28.80
2018-07-25T13:21:47.856Z,28.90
2018-07-25T13:24:16.230Z,28.40
2018-07-25T13:29:23.451Z,28.80
2018-07-25T13:31:51.352Z,28.60
2018-07-25T13:34:28.397Z,28.80
2018-07-25T13:36:59.397Z,28.70
2018-07-25T13:42:32.342Z,29.20
2018-07-25T13:45:00.053Z,28.30
2018-07-25T13:47:27.582Z,28.40
2018-07-25T13:49:55.056Z,28.50
2018-07-25T13:52:22.526Z,28.60
2018-07-25T13:54:51.823Z,28.50
2018-07-25T13:57:19.430Z,28.10
2018-07-25T14:02:44.209Z,28.50
2018-07-25T14:05:23.614Z,29.10
2018-07-25T14:08:14.890Z,28.20
2018-07-25T14:16:50.745Z,27.00
2018-07-25T14:19:18.423Z,27.20
2018-07-25T14:21:46.180Z,27.10
2018-07-25T14:24:22.733Z,27.70
2018-07-25T14:27:00.561Z,27.90
2018-07-25T14:29:29.336Z,27.40
2018-07-25T14:31:57.032Z,27.30
2018-07-25T14:34:26.986Z,27.30
2018-07-25T14:36:58.321Z,27.30
2018-07-25T14:42:11.044Z,27.60
2018-07-25T14:44:51.877Z,27.70
2018-07-25T14:47:19.590Z,27.30
2018-07-25T14:49:48.610Z,26.50
2018-07-25T14:52:17.704Z,26.60
2018-07-25T14:57:28.759Z,26.90
2018-07-25T14:59:56.816Z,26.20
2018-07-25T15:02:26.810Z,26.10
2018-07-25T15:04:54.622Z,26.10
2018-07-25T15:07:22.344Z,25.70
2018-07-25T15:09:50.178Z,25.80
2018-07-25T15:12:30.037Z,25.50
2018-07-25T15:14:58.215Z,25.90
2018-07-25T15:17:27.800Z,26.20
2018-07-25T15:19:55.643Z,25.50
2018-07-25T15:22:25.094Z,24.50
2018-07-25T15:24:53.265Z,25.20
2018-07-25T15:27:20.919Z,25.80
2018-07-25T15:29:48.635Z,26.30
2018-07-25T15:32:16.080Z,26.30
2018-07-25T15:34:43.896Z,25.80
2018-07-25T15:37:11.547Z,26.10
2018-07-25T15:39:39.137Z,25.30
2018-07-25T15:42:07.595Z,26.00
2018-07-25T15:44:35.638Z,26.70
2018-07-25T15:47:03.972Z,27.20
2018-07-25T15:49:31.531Z,26.50
2018-07-25T15:51:59.061Z,27.40
2018-07-25T15:54:34.078Z,26.70
2018-07-25T15:57:01.642Z,25.90
2018-07-25T15:59:34.948Z,25.80
2018-07-25T16:02:02.602Z,26.20
2018-07-25T16:04:30.115Z,25.40
2018-07-25T16:06:57.660Z,26.10
2018-07-25T16:09:25.490Z,25.80
2018-07-25T16:18:17.872Z,24.10
2018-07-25T16:23:38.011Z,25.60
2018-07-25T16:28:58.478Z,25.00
2018-07-25T16:43:30.804Z,27.60
2018-07-25T16:51:31.412Z,27.20
2018-07-25T16:54:02.214Z,27.60
2018-07-25T16:57:09.368Z,28.60
2018-07-25T17:02:42.157Z,29.20
2018-07-25T17:13:59.400Z,29.80
2018-07-25T17:16:35.073Z,29.60
2018-07-25T17:22:05.105Z,30.60
2018-07-25T17:24:32.914Z,29.50
2018-07-25T17:33:09.184Z,30.20
2018-07-25T17:35:40.028Z,30.90
2018-07-25T17:47:15.403Z,31.10
2018-07-25T17:55:57.012Z,31.90
2018-07-25T18:03:50.848Z,31.70
2018-07-25T18:06:19.027Z,32.10
2018-07-25T18:08:46.519Z,33.20
2018-07-25T18:11:23.264Z,35.80
2018-07-25T18:13:59.086Z,34.10
2018-07-25T18:16:26.880Z,34.40
2018-07-25T18:42:52.473Z,34.60
2018-07-25T18:45:19.948Z,42.70
2018-07-25T18:47:47.566Z,42.70
2018-07-25T18:50:15.037Z,42.10
2018-07-25T18:52:42.591Z,41.80
2018-07-25T18:55:10.193Z,41.40
2018-07-25T18:57:37.916Z,41.20
2018-07-25T19:00:05.600Z,41.20
2018-07-25T19:02:33.078Z,40.80
2018-07-25T19:05:00.676Z,40.60
2018-07-25T19:07:28.398Z,40.90
2018-07-25T19:09:56.026Z,40.20
2018-07-25T19:12:24.028Z,41.30
2018-07-25T19:14:57.199Z,41.30
2018-07-25T19:17:24.710Z,41.20
2018-07-25T19:19:52.251Z,41.70
2018-07-25T19:24:47.379Z,42.00
2018-07-25T19:27:14.822Z,42.90
2018-07-25T19:29:42.326Z,43.20
2018-07-25T19:32:09.857Z,43.30
2018-07-25T19:34:37.333Z,41.30
2018-07-25T19:37:04.868Z,39.50
2018-07-25T19:39:37.385Z,40.60
2018-07-25T19:42:06.098Z,40.90
2018-07-25T19:44:41.389Z,40.60
2018-07-25T19:47:11.922Z,40.20
2018-07-25T19:49:39.518Z,40.10
2018-07-25T19:52:06.880Z,40.30
2018-07-25T19:54:34.598Z,40.10
2018-07-25T19:57:02.003Z,41.00
2018-07-25T19:59:29.609Z,40.80
2018-07-25T20:01:57.093Z,40.40
2018-07-25T20:04:25.612Z,40.40
2018-07-25T20:06:53.210Z,39.90
2018-07-25T20:09:20.669Z,41.20
2018-07-25T20:11:48.354Z,42.00
2018-07-25T20:14:21.365Z,42.40
2018-07-25T20:16:48.929Z,42.60
2018-07-25T20:19:17.630Z,43.20
2018-07-25T20:21:45.453Z,42.80
2018-07-25T20:24:13.104Z,42.70
2018-07-25T20:26:40.670Z,43.60
2018-07-25T20:29:13.113Z,43.80
2018-07-25T20:31:40.715Z,44.30
2018-07-25T20:34:08.256Z,43.90
2018-07-25T20:36:35.785Z,44.80
2018-07-25T20:39:06.073Z,45.00
2018-07-25T20:41:46.153Z,45.40
2018-07-25T20:44:14.488Z,45.40
2018-07-25T20:46:42.068Z,46.00
2018-07-25T20:49:09.746Z,46.60
2018-07-25T20:51:40.107Z,47.10
2018-07-25T20:54:08.759Z,47.60
2018-07-25T20:56:41.896Z,46.70
2018-07-25T20:59:09.390Z,47.20
2018-07-25T21:01:41.332Z,48.20
2018-07-25T21:04:08.827Z,48.10
2018-07-25T21:06:36.345Z,47.20
2018-07-25T21:09:06.216Z,48.20
2018-07-25T21:11:34.509Z,47.70
2018-07-25T21:14:01.986Z,46.90
2018-07-25T21:16:29.420Z,47.00
2018-07-25T21:18:57.021Z,47.30
2018-07-25T21:21:24.656Z,47.70
2018-07-25T21:23:52.147Z,47.80
2018-07-25T21:26:19.659Z,47.60
2018-07-25T21:28:47.190Z,48.20
2018-07-25T21:31:15.603Z,48.60
2018-07-25T21:33:43.234Z,48.70
2018-07-25T21:36:10.791Z,48.00
2018-07-25T21:38:39.287Z,48.20
2018-07-25T21:41:07.077Z,48.70
2018-07-25T21:43:34.692Z,49.20
2018-07-25T21:46:02.479Z,49.50
2018-07-25T21:48:30.090Z,49.70
2018-07-25T21:50:57.778Z,50.50
2018-07-25T21:53:25.431Z,50.20
2018-07-25T21:55:52.985Z,51.00
2018-07-25T21:58:20.611Z,50.70
2018-07-25T22:00:57.269Z,51.40
2018-07-25T22:03:24.784Z,51.40
2018-07-25T22:05:52.477Z,52.20
2018-07-25T22:08:20.252Z,52.10
2018-07-25T22:10:47.946Z,51.70
2018-07-25T22:13:15.897Z,51.00
2018-07-25T22:15:43.929Z,51.00
2018-07-25T22:18:11.813Z,51.10
2018-07-25T22:20:39.803Z,50.60
2018-07-25T22:23:07.347Z,51.50
2018-07-25T22:25:34.848Z,51.60
2018-07-25T22:28:02.408Z,51.70
2018-07-25T22:30:29.864Z,51.50
2018-07-25T22:32:57.312Z,51.80
2018-07-25T22:35:24.866Z,52.40
2018-07-25T22:37:52.457Z,51.90
2018-07-25T22:40:19.919Z,52.70
2018-07-25T22:42:47.462Z,52.80
2018-07-25T22:45:14.988Z,53.00
2018-07-25T22:47:42.541Z,53.10
2018-07-25T22:50:10.046Z,53.00
2018-07-25T22:52:37.599Z,53.40
2018-07-25T22:55:05.375Z,53.80
2018-07-25T22:57:32.920Z,54.10
2018-07-25T23:00:00.396Z,54.10
2018-07-25T23:02:29.317Z,55.10
2018-07-25T23:04:56.780Z,54.10
2018-07-25T23:09:51.634Z,53.70
2018-07-25T23:12:19.190Z,53.80
2018-07-25T23:14:46.802Z,54.30
2018-07-25T23:17:14.308Z,54.80
2018-07-25T23:19:41.831Z,55.10
2018-07-25T23:24:36.847Z,53.20
2018-07-25T23:27:04.347Z,53.10
2018-07-25T23:29:31.928Z,53.20
2018-07-25T23:31:59.407Z,52.80
2018-07-25T23:34:26.899Z,53.00
2018-07-25T23:36:54.421Z,52.30
2018-07-25T23:39:21.980Z,51.80
2018-07-25T23:41:49.587Z,52.20
2018-07-25T23:44:17.056Z,52.60
2018-07-25T23:46:44.519Z,52.50
2018-07-25T23:49:11.968Z,52.20
2018-07-25T23:51:39.490Z,52.40
2018-07-25T23:54:07.055Z,52.40
2018-07-25T23:56:34.652Z,52.60
2018-07-25T23:59:02.109Z,52.80
